sensor_id;sensor_type;location;lat;lon;timestamp;P1;durP1;ratioP1;P2;durP2;ratioP2
73593;SDS011;64760;53.404;23.498;2024-02-23T00:00:48;10.38;;;4.38;;
73593;SDS011;64760;53.404;23.498;2024-02-23T00:06:03;8.32;;;3.88;;
73593;SDS011;64760;53.404;23.498;2024-02-23T00:08:36;7.82;;;3.67;;
73593;SDS011;64760;53.404;23.498;2024-02-23T00:11:05;6.00;;;2.90;;
73593;SDS011;64760;53.404;23.498;2024-02-23T00:13:33;7.65;;;4.65;;
73593;SDS011;64760;53.404;23.498;2024-02-23T00:16:03;8.43;;;3.45;;
73593;SDS011;64760;53.404;23.498;2024-02-23T00:18:34;5.28;;;2.78;;
73593;SDS011;64760;53.404;23.498;2024-02-23T00:21:01;4.57;;;2.25;;
73593;SDS011;64760;53.404;23.498;2024-02-23T00:23:27;6.47;;;3.45;;
73593;SDS011;64760;53.404;23.498;2024-02-23T00:25:55;4.63;;;2.72;;
73593;SDS011;64760;53.404;23.498;2024-02-23T00:28:21;5.32;;;3.38;;
73593;SDS011;64760;53.404;23.498;2024-02-23T00:30:48;5.53;;;2.53;;
73593;SDS011;64760;53.404;23.498;2024-02-23T00:33:15;5.45;;;3.15;;
73593;SDS011;64760;53.404;23.498;2024-02-23T00:35:41;9.95;;;3.53;;
73593;SDS011;64760;53.404;23.498;2024-02-23T00:38:08;7.65;;;3.78;;
73593;SDS011;64760;53.404;23.498;2024-02-23T00:40:35;6.68;;;2.97;;
73593;SDS011;64760;53.404;23.498;2024-02-23T00:43:06;6.97;;;3.58;;
73593;SDS011;64760;53.404;23.498;2024-02-23T00:48:40;5.88;;;3.10;;
73593;SDS011;64760;53.404;23.498;2024-02-23T00:54:41;8.43;;;3.70;;
73593;SDS011;64760;53.404;23.498;2024-02-23T00:57:07;7.35;;;3.28;;
73593;SDS011;64760;53.404;23.498;2024-02-23T00:59:37;7.82;;;3.53;;
73593;SDS011;64760;53.404;23.498;2024-02-23T01:02:04;5.68;;;3.67;;
73593;SDS011;64760;53.404;23.498;2024-02-23T01:04:44;6.20;;;3.60;;
73593;SDS011;64760;53.404;23.498;2024-02-23T01:10:39;5.97;;;2.80;;
73593;SDS011;64760;53.404;23.498;2024-02-23T01:13:06;7.63;;;4.03;;
73593;SDS011;64760;53.404;23.498;2024-02-23T01:15:32;6.07;;;3.40;;
73593;SDS011;64760;53.404;23.498;2024-02-23T01:20:45;7.20;;;3.22;;
73593;SDS011;64760;53.404;23.498;2024-02-23T01:23:12;6.03;;;3.97;;
73593;SDS011;64760;53.404;23.498;2024-02-23T01:25:39;5.03;;;2.80;;
73593;SDS011;64760;53.404;23.498;2024-02-23T01:28:07;8.27;;;3.90;;
73593;SDS011;64760;53.404;23.498;2024-02-23T01:30:34;5.72;;;3.53;;
73593;SDS011;64760;53.404;23.498;2024-02-23T01:33:00;9.27;;;4.55;;
73593;SDS011;64760;53.404;23.498;2024-02-23T01:35:28;6.25;;;3.40;;
73593;SDS011;64760;53.404;23.498;2024-02-23T01:37:55;7.47;;;3.97;;
73593;SDS011;64760;53.404;23.498;2024-02-23T01:40:23;9.38;;;5.32;;
73593;SDS011;64760;53.404;23.498;2024-02-23T01:42:59;8.40;;;3.90;;
73593;SDS011;64760;53.404;23.498;2024-02-23T01:48:15;9.38;;;3.47;;
73593;SDS011;64760;53.404;23.498;2024-02-23T01:50:47;5.97;;;3.80;;
73593;SDS011;64760;53.404;23.498;2024-02-23T01:53:16;6.82;;;3.22;;
73593;SDS011;64760;53.404;23.498;2024-02-23T01:55:46;6.03;;;2.92;;
73593;SDS011;64760;53.404;23.498;2024-02-23T01:58:13;6.40;;;3.38;;
73593;SDS011;64760;53.404;23.498;2024-02-23T02:00:47;7.13;;;3.80;;
73593;SDS011;64760;53.404;23.498;2024-02-23T02:09:40;7.07;;;3.40;;
73593;SDS011;64760;53.404;23.498;2024-02-23T02:12:07;5.90;;;3.40;;
73593;SDS011;64760;53.404;23.498;2024-02-23T02:14:33;6.40;;;3.38;;
73593;SDS011;64760;53.404;23.498;2024-02-23T02:17:00;6.47;;;3.97;;
73593;SDS011;64760;53.404;23.498;2024-02-23T02:19:27;7.55;;;3.90;;
73593;SDS011;64760;53.404;23.498;2024-02-23T02:21:53;8.95;;;4.80;;
73593;SDS011;64760;53.404;23.498;2024-02-23T02:24:19;10.27;;;4.10;;
73593;SDS011;64760;53.404;23.498;2024-02-23T02:26:51;6.00;;;3.58;;
73593;SDS011;64760;53.404;23.498;2024-02-23T02:33:12;6.47;;;4.00;;
73593;SDS011;64760;53.404;23.498;2024-02-23T02:35:39;8.38;;;4.70;;
73593;SDS011;64760;53.404;23.498;2024-02-23T02:38:05;9.13;;;2.78;;
73593;SDS011;64760;53.404;23.498;2024-02-23T02:40:31;8.30;;;4.55;;
73593;SDS011;64760;53.404;23.498;2024-02-23T02:45:43;8.63;;;4.20;;
73593;SDS011;64760;53.404;23.498;2024-02-23T02:48:09;12.13;;;6.22;;
73593;SDS011;64760;53.404;23.498;2024-02-23T02:50:36;10.00;;;4.88;;
73593;SDS011;64760;53.404;23.498;2024-02-23T02:53:02;10.93;;;5.85;;
73593;SDS011;64760;53.404;23.498;2024-02-23T02:55:28;10.50;;;5.68;;
73593;SDS011;64760;53.404;23.498;2024-02-23T02:57:54;7.43;;;3.72;;
73593;SDS011;64760;53.404;23.498;2024-02-23T03:00:21;10.90;;;5.05;;
73593;SDS011;64760;53.404;23.498;2024-02-23T03:02:47;9.02;;;4.40;;
73593;SDS011;64760;53.404;23.498;2024-02-23T03:05:13;3.63;;;2.47;;
73593;SDS011;64760;53.404;23.498;2024-02-23T03:07:39;8.57;;;4.13;;
73593;SDS011;64760;53.404;23.498;2024-02-23T03:10:06;8.23;;;4.00;;
73593;SDS011;64760;53.404;23.498;2024-02-23T03:12:33;5.43;;;3.20;;
73593;SDS011;64760;53.404;23.498;2024-02-23T03:14:59;7.60;;;4.40;;
73593;SDS011;64760;53.404;23.498;2024-02-23T03:20:11;8.25;;;4.68;;
73593;SDS011;64760;53.404;23.498;2024-02-23T03:22:37;9.05;;;5.20;;
73593;SDS011;64760;53.404;23.498;2024-02-23T03:25:04;13.35;;;5.40;;
73593;SDS011;64760;53.404;23.498;2024-02-23T03:27:36;7.35;;;5.07;;
73593;SDS011;64760;53.404;23.498;2024-02-23T03:30:03;5.90;;;3.83;;
73593;SDS011;64760;53.404;23.498;2024-02-23T03:32:31;10.13;;;5.15;;
73593;SDS011;64760;53.404;23.498;2024-02-23T03:35:02;7.55;;;5.63;;
73593;SDS011;64760;53.404;23.498;2024-02-23T03:37:30;13.80;;;5.90;;
73593;SDS011;64760;53.404;23.498;2024-02-23T03:39:56;6.75;;;4.03;;
73593;SDS011;64760;53.404;23.498;2024-02-23T03:42:22;7.72;;;4.57;;
73593;SDS011;64760;53.404;23.498;2024-02-23T03:44:49;4.75;;;3.05;;
73593;SDS011;64760;53.404;23.498;2024-02-23T03:47:16;7.38;;;4.40;;
73593;SDS011;64760;53.404;23.498;2024-02-23T03:49:42;6.53;;;4.32;;
73593;SDS011;64760;53.404;23.498;2024-02-23T03:52:08;9.43;;;4.90;;
73593;SDS011;64760;53.404;23.498;2024-02-23T03:54:35;6.95;;;4.32;;
73593;SDS011;64760;53.404;23.498;2024-02-23T03:57:02;9.25;;;5.28;;
73593;SDS011;64760;53.404;23.498;2024-02-23T04:01:55;6.53;;;3.90;;
73593;SDS011;64760;53.404;23.498;2024-02-23T04:04:22;7.90;;;4.10;;
73593;SDS011;64760;53.404;23.498;2024-02-23T04:06:49;5.78;;;3.58;;
73593;SDS011;64760;53.404;23.498;2024-02-23T04:09:15;8.27;;;4.55;;
73593;SDS011;64760;53.404;23.498;2024-02-23T04:11:41;6.43;;;3.90;;
73593;SDS011;64760;53.404;23.498;2024-02-23T04:14:08;7.50;;;4.53;;
73593;SDS011;64760;53.404;23.498;2024-02-23T04:16:34;7.60;;;4.32;;
73593;SDS011;64760;53.404;23.498;2024-02-23T04:19:01;8.57;;;4.38;;
73593;SDS011;64760;53.404;23.498;2024-02-23T04:21:27;8.75;;;3.97;;
73593;SDS011;64760;53.404;23.498;2024-02-23T04:23:53;8.75;;;4.45;;
73593;SDS011;64760;53.404;23.498;2024-02-23T04:26:19;10.23;;;4.97;;
73593;SDS011;64760;53.404;23.498;2024-02-23T04:28:46;7.30;;;4.47;;
73593;SDS011;64760;53.404;23.498;2024-02-23T04:31:13;6.82;;;3.90;;
73593;SDS011;64760;53.404;23.498;2024-02-23T04:33:40;7.50;;;4.60;;
73593;SDS011;64760;53.404;23.498;2024-02-23T04:36:07;8.90;;;4.90;;
73593;SDS011;64760;53.404;23.498;2024-02-23T04:38:33;6.13;;;3.67;;
73593;SDS011;64760;53.404;23.498;2024-02-23T04:41:02;6.43;;;4.00;;
73593;SDS011;64760;53.404;23.498;2024-02-23T04:43:30;6.97;;;3.80;;
73593;SDS011;64760;53.404;23.498;2024-02-23T04:45:57;6.28;;;4.15;;
73593;SDS011;64760;53.404;23.498;2024-02-23T04:48:23;7.00;;;4.03;;
73593;SDS011;64760;53.404;23.498;2024-02-23T04:50:50;7.80;;;4.15;;
73593;SDS011;64760;53.404;23.498;2024-02-23T04:53:16;8.15;;;3.60;;
73593;SDS011;64760;53.404;23.498;2024-02-23T04:55:43;8.45;;;3.75;;
73593;SDS011;64760;53.404;23.498;2024-02-23T04:58:09;11.07;;;4.65;;
73593;SDS011;64760;53.404;23.498;2024-02-23T05:00:37;6.57;;;4.13;;
73593;SDS011;64760;53.404;23.498;2024-02-23T05:03:05;5.65;;;3.35;;
73593;SDS011;64760;53.404;23.498;2024-02-23T05:05:32;7.18;;;4.07;;
73593;SDS011;64760;53.404;23.498;2024-02-23T05:07:59;10.18;;;4.72;;
73593;SDS011;64760;53.404;23.498;2024-02-23T05:10:25;8.65;;;4.45;;
73593;SDS011;64760;53.404;23.498;2024-02-23T05:12:52;7.10;;;3.35;;
73593;SDS011;64760;53.404;23.498;2024-02-23T05:15:18;5.05;;;3.45;;
73593;SDS011;64760;53.404;23.498;2024-02-23T05:17:45;4.85;;;3.13;;
73593;SDS011;64760;53.404;23.498;2024-02-23T05:20:11;7.40;;;3.60;;
73593;SDS011;64760;53.404;23.498;2024-02-23T05:22:38;4.78;;;3.63;;
73593;SDS011;64760;53.404;23.498;2024-02-23T05:27:58;4.53;;;2.80;;
73593;SDS011;64760;53.404;23.498;2024-02-23T05:30:24;5.55;;;3.85;;
73593;SDS011;64760;53.404;23.498;2024-02-23T05:32:54;5.72;;;3.33;;
73593;SDS011;64760;53.404;23.498;2024-02-23T05:37:47;6.13;;;3.42;;
73593;SDS011;64760;53.404;23.498;2024-02-23T05:40:15;5.35;;;3.78;;
73593;SDS011;64760;53.404;23.498;2024-02-23T05:42:42;5.47;;;2.80;;
73593;SDS011;64760;53.404;23.498;2024-02-23T05:45:08;6.93;;;3.75;;
73593;SDS011;64760;53.404;23.498;2024-02-23T05:47:38;5.28;;;3.42;;
73593;SDS011;64760;53.404;23.498;2024-02-23T05:50:05;5.40;;;3.35;;
73593;SDS011;64760;53.404;23.498;2024-02-23T05:52:33;6.93;;;4.72;;
73593;SDS011;64760;53.404;23.498;2024-02-23T05:55:00;4.85;;;2.92;;
73593;SDS011;64760;53.404;23.498;2024-02-23T05:57:27;7.35;;;3.90;;
73593;SDS011;64760;53.404;23.498;2024-02-23T05:59:53;5.88;;;3.17;;
73593;SDS011;64760;53.404;23.498;2024-02-23T06:02:21;4.18;;;2.75;;
73593;SDS011;64760;53.404;23.498;2024-02-23T06:04:48;5.60;;;3.33;;
73593;SDS011;64760;53.404;23.498;2024-02-23T06:07:14;6.25;;;4.05;;
73593;SDS011;64760;53.404;23.498;2024-02-23T06:09:47;5.30;;;3.38;;
73593;SDS011;64760;53.404;23.498;2024-02-23T06:12:14;6.25;;;3.30;;
73593;SDS011;64760;53.404;23.498;2024-02-23T06:14:40;5.10;;;2.92;;
73593;SDS011;64760;53.404;23.498;2024-02-23T06:17:06;7.88;;;3.78;;
73593;SDS011;64760;53.404;23.498;2024-02-23T06:19:34;7.30;;;3.75;;
73593;SDS011;64760;53.404;23.498;2024-02-23T06:22:00;4.53;;;2.55;;
73593;SDS011;64760;53.404;23.498;2024-02-23T06:24:27;4.82;;;2.97;;
73593;SDS011;64760;53.404;23.498;2024-02-23T06:26:53;9.45;;;4.28;;
73593;SDS011;64760;53.404;23.498;2024-02-23T06:29:20;4.70;;;3.40;;
73593;SDS011;64760;53.404;23.498;2024-02-23T06:31:48;5.35;;;3.75;;
73593;SDS011;64760;53.404;23.498;2024-02-23T06:34:17;3.50;;;2.45;;
73593;SDS011;64760;53.404;23.498;2024-02-23T06:36:44;5.47;;;3.78;;
73593;SDS011;64760;53.404;23.498;2024-02-23T06:39:10;8.70;;;4.63;;
73593;SDS011;64760;53.404;23.498;2024-02-23T06:41:37;5.60;;;2.80;;
73593;SDS011;64760;53.404;23.498;2024-02-23T06:44:04;6.55;;;4.05;;
73593;SDS011;64760;53.404;23.498;2024-02-23T06:46:32;6.07;;;4.00;;
73593;SDS011;64760;53.404;23.498;2024-02-23T06:51:26;6.63;;;3.22;;
73593;SDS011;64760;53.404;23.498;2024-02-23T06:53:53;4.03;;;2.60;;
73593;SDS011;64760;53.404;23.498;2024-02-23T06:56:21;5.10;;;3.38;;
73593;SDS011;64760;53.404;23.498;2024-02-23T06:58:48;6.97;;;4.15;;
73593;SDS011;64760;53.404;23.498;2024-02-23T07:01:16;6.38;;;3.65;;
73593;SDS011;64760;53.404;23.498;2024-02-23T07:03:42;7.30;;;4.53;;
73593;SDS011;64760;53.404;23.498;2024-02-23T07:06:11;7.95;;;4.25;;
73593;SDS011;64760;53.404;23.498;2024-02-23T07:08:38;8.57;;;4.25;;
73593;SDS011;64760;53.404;23.498;2024-02-23T07:11:05;13.23;;;4.65;;
73593;SDS011;64760;53.404;23.498;2024-02-23T07:13:35;8.48;;;5.45;;
73593;SDS011;64760;53.404;23.498;2024-02-23T07:16:02;15.77;;;7.15;;
73593;SDS011;64760;53.404;23.498;2024-02-23T07:18:34;13.23;;;5.28;;
73593;SDS011;64760;53.404;23.498;2024-02-23T07:21:00;5.82;;;3.75;;
73593;SDS011;64760;53.404;23.498;2024-02-23T07:23:28;9.43;;;4.50;;
73593;SDS011;64760;53.404;23.498;2024-02-23T07:25:55;8.25;;;4.18;;
73593;SDS011;64760;53.404;23.498;2024-02-23T07:28:21;8.48;;;3.83;;
73593;SDS011;64760;53.404;23.498;2024-02-23T07:30:49;10.50;;;4.97;;
73593;SDS011;64760;53.404;23.498;2024-02-23T07:33:15;7.72;;;4.28;;
73593;SDS011;64760;53.404;23.498;2024-02-23T07:35:41;5.97;;;3.22;;
73593;SDS011;64760;53.404;23.498;2024-02-23T07:38:08;6.78;;;3.78;;
73593;SDS011;64760;53.404;23.498;2024-02-23T07:40:35;5.78;;;3.53;;
73593;SDS011;64760;53.404;23.498;2024-02-23T07:43:01;7.30;;;3.72;;
73593;SDS011;64760;53.404;23.498;2024-02-23T07:45:27;5.13;;;3.03;;
73593;SDS011;64760;53.404;23.498;2024-02-23T07:47:53;6.30;;;3.63;;
73593;SDS011;64760;53.404;23.498;2024-02-23T07:50:21;7.68;;;3.58;;
73593;SDS011;64760;53.404;23.498;2024-02-23T07:52:49;7.60;;;3.90;;
73593;SDS011;64760;53.404;23.498;2024-02-23T07:55:16;9.27;;;4.68;;
73593;SDS011;64760;53.404;23.498;2024-02-23T07:57:42;7.13;;;4.45;;
73593;SDS011;64760;53.404;23.498;2024-02-23T08:00:10;7.97;;;4.22;;
73593;SDS011;64760;53.404;23.498;2024-02-23T08:02:46;8.80;;;4.72;;
73593;SDS011;64760;53.404;23.498;2024-02-23T08:05:13;7.35;;;4.53;;
73593;SDS011;64760;53.404;23.498;2024-02-23T08:07:39;8.40;;;5.10;;
73593;SDS011;64760;53.404;23.498;2024-02-23T08:10:06;7.45;;;3.80;;
73593;SDS011;64760;53.404;23.498;2024-02-23T08:12:33;9.07;;;4.57;;
73593;SDS011;64760;53.404;23.498;2024-02-23T08:14:59;7.22;;;3.90;;
73593;SDS011;64760;53.404;23.498;2024-02-23T08:17:38;5.82;;;4.22;;
73593;SDS011;64760;53.404;23.498;2024-02-23T08:20:05;6.82;;;4.65;;
73593;SDS011;64760;53.404;23.498;2024-02-23T08:22:32;7.45;;;4.50;;
73593;SDS011;64760;53.404;23.498;2024-02-23T08:24:58;8.82;;;4.78;;
73593;SDS011;64760;53.404;23.498;2024-02-23T08:27:25;4.97;;;3.15;;
73593;SDS011;64760;53.404;23.498;2024-02-23T08:29:51;8.77;;;4.95;;
73593;SDS011;64760;53.404;23.498;2024-02-23T08:32:18;7.78;;;4.82;;
73593;SDS011;64760;53.404;23.498;2024-02-23T08:34:49;7.38;;;4.97;;
73593;SDS011;64760;53.404;23.498;2024-02-23T08:37:18;6.32;;;4.60;;
73593;SDS011;64760;53.404;23.498;2024-02-23T08:39:45;7.88;;;5.18;;
73593;SDS011;64760;53.404;23.498;2024-02-23T08:42:13;4.93;;;3.42;;
73593;SDS011;64760;53.404;23.498;2024-02-23T08:44:39;7.10;;;4.05;;
73593;SDS011;64760;53.404;23.498;2024-02-23T08:47:06;6.22;;;4.43;;
73593;SDS011;64760;53.404;23.498;2024-02-23T08:49:34;7.43;;;3.70;;
73593;SDS011;64760;53.404;23.498;2024-02-23T08:52:00;5.47;;;4.25;;
73593;SDS011;64760;53.404;23.498;2024-02-23T08:56:59;6.13;;;4.35;;
73593;SDS011;64760;53.404;23.498;2024-02-23T08:59:25;6.47;;;3.53;;
73593;SDS011;64760;53.404;23.498;2024-02-23T09:01:52;7.05;;;3.65;;
73593;SDS011;64760;53.404;23.498;2024-02-23T09:04:18;7.60;;;4.55;;
73593;SDS011;64760;53.404;23.498;2024-02-23T09:06:45;6.85;;;4.60;;
73593;SDS011;64760;53.404;23.498;2024-02-23T09:09:14;6.93;;;4.10;;
73593;SDS011;64760;53.404;23.498;2024-02-23T09:11:40;8.35;;;4.93;;
73593;SDS011;64760;53.404;23.498;2024-02-23T09:14:06;7.32;;;5.00;;
73593;SDS011;64760;53.404;23.498;2024-02-23T09:16:33;5.72;;;3.63;;
73593;SDS011;64760;53.404;23.498;2024-02-23T09:19:00;7.32;;;4.32;;
73593;SDS011;64760;53.404;23.498;2024-02-23T09:21:26;11.27;;;6.15;;
73593;SDS011;64760;53.404;23.498;2024-02-23T09:23:52;8.45;;;4.88;;
73593;SDS011;64760;53.404;23.498;2024-02-23T09:26:19;9.77;;;4.60;;
73593;SDS011;64760;53.404;23.498;2024-02-23T09:28:46;7.95;;;5.30;;
73593;SDS011;64760;53.404;23.498;2024-02-23T09:31:13;6.70;;;5.05;;
73593;SDS011;64760;53.404;23.498;2024-02-23T09:33:41;8.25;;;5.05;;
73593;SDS011;64760;53.404;23.498;2024-02-23T09:36:07;7.65;;;4.57;;
73593;SDS011;64760;53.404;23.498;2024-02-23T09:38:35;6.57;;;4.60;;
73593;SDS011;64760;53.404;23.498;2024-02-23T09:41:03;5.40;;;3.58;;
73593;SDS011;64760;53.404;23.498;2024-02-23T09:46:17;9.07;;;5.05;;
73593;SDS011;64760;53.404;23.498;2024-02-23T09:48:44;7.68;;;4.80;;
73593;SDS011;64760;53.404;23.498;2024-02-23T09:51:15;6.47;;;4.25;;
73593;SDS011;64760;53.404;23.498;2024-02-23T09:53:43;11.10;;;5.03;;
73593;SDS011;64760;53.404;23.498;2024-02-23T09:56:13;5.60;;;3.88;;
73593;SDS011;64760;53.404;23.498;2024-02-23T09:58:43;7.80;;;4.95;;
73593;SDS011;64760;53.404;23.498;2024-02-23T10:01:12;10.77;;;6.22;;
73593;SDS011;64760;53.404;23.498;2024-02-23T10:03:43;9.77;;;6.82;;
73593;SDS011;64760;53.404;23.498;2024-02-23T10:06:10;10.00;;;5.68;;
73593;SDS011;64760;53.404;23.498;2024-02-23T10:08:38;7.03;;;4.47;;
73593;SDS011;64760;53.404;23.498;2024-02-23T10:11:05;4.38;;;3.45;;
73593;SDS011;64760;53.404;23.498;2024-02-23T10:13:31;4.88;;;3.10;;
73593;SDS011;64760;53.404;23.498;2024-02-23T10:15:57;6.18;;;3.38;;
73593;SDS011;64760;53.404;23.498;2024-02-23T10:18:24;7.28;;;4.32;;
73593;SDS011;64760;53.404;23.498;2024-02-23T10:20:51;5.30;;;3.90;;
73593;SDS011;64760;53.404;23.498;2024-02-23T10:23:19;6.10;;;3.55;;
73593;SDS011;64760;53.404;23.498;2024-02-23T10:25:47;7.07;;;4.53;;
73593;SDS011;64760;53.404;23.498;2024-02-23T10:28:13;7.65;;;4.70;;
73593;SDS011;64760;53.404;23.498;2024-02-23T10:30:40;6.35;;;4.35;;
73593;SDS011;64760;53.404;23.498;2024-02-23T10:33:08;5.75;;;4.22;;
73593;SDS011;64760;53.404;23.498;2024-02-23T10:35:37;5.93;;;4.78;;
73593;SDS011;64760;53.404;23.498;2024-02-23T10:38:07;8.02;;;4.63;;
73593;SDS011;64760;53.404;23.498;2024-02-23T10:40:38;7.05;;;5.03;;
73593;SDS011;64760;53.404;23.498;2024-02-23T10:43:12;8.20;;;4.93;;
73593;SDS011;64760;53.404;23.498;2024-02-23T10:45:46;7.43;;;4.53;;
73593;SDS011;64760;53.404;23.498;2024-02-23T10:48:13;7.38;;;4.43;;
73593;SDS011;64760;53.404;23.498;2024-02-23T10:50:40;5.65;;;3.40;;
73593;SDS011;64760;53.404;23.498;2024-02-23T10:53:10;5.53;;;3.00;;
73593;SDS011;64760;53.404;23.498;2024-02-23T10:55:37;5.20;;;3.75;;
73593;SDS011;64760;53.404;23.498;2024-02-23T10:58:06;10.25;;;5.25;;
73593;SDS011;64760;53.404;23.498;2024-02-23T11:00:34;23.58;;;10.82;;
73593;SDS011;64760;53.404;23.498;2024-02-23T11:03:01;17.15;;;7.82;;
73593;SDS011;64760;53.404;23.498;2024-02-23T11:05:29;14.00;;;7.03;;
73593;SDS011;64760;53.404;23.498;2024-02-23T11:07:56;21.50;;;8.68;;
73593;SDS011;64760;53.404;23.498;2024-02-23T11:10:22;11.55;;;7.18;;
73593;SDS011;64760;53.404;23.498;2024-02-23T11:12:58;8.52;;;5.18;;
73593;SDS011;64760;53.404;23.498;2024-02-23T11:15:26;9.88;;;5.07;;
73593;SDS011;64760;53.404;23.498;2024-02-23T11:17:54;8.40;;;4.53;;
73593;SDS011;64760;53.404;23.498;2024-02-23T11:20:20;7.82;;;4.10;;
73593;SDS011;64760;53.404;23.498;2024-02-23T11:22:51;6.30;;;3.83;;
73593;SDS011;64760;53.404;23.498;2024-02-23T11:25:20;9.98;;;4.65;;
73593;SDS011;64760;53.404;23.498;2024-02-23T11:27:55;5.90;;;3.10;;
73593;SDS011;64760;53.404;23.498;2024-02-23T11:30:21;11.48;;;6.32;;
73593;SDS011;64760;53.404;23.498;2024-02-23T11:32:47;10.95;;;6.40;;
73593;SDS011;64760;53.404;23.498;2024-02-23T11:35:15;12.82;;;6.60;;
73593;SDS011;64760;53.404;23.498;2024-02-23T11:37:49;8.93;;;5.35;;
73593;SDS011;64760;53.404;23.498;2024-02-23T11:40:25;6.65;;;4.40;;
73593;SDS011;64760;53.404;23.498;2024-02-23T11:42:56;9.48;;;4.75;;
73593;SDS011;64760;53.404;23.498;2024-02-23T11:45:27;7.72;;;3.90;;
73593;SDS011;64760;53.404;23.498;2024-02-23T11:47:55;6.57;;;3.53;;
73593;SDS011;64760;53.404;23.498;2024-02-23T11:50:21;5.82;;;3.50;;
73593;SDS011;64760;53.404;23.498;2024-02-23T11:52:48;6.30;;;3.78;;
73593;SDS011;64760;53.404;23.498;2024-02-23T11:55:20;5.07;;;3.33;;
73593;SDS011;64760;53.404;23.498;2024-02-23T11:57:50;6.50;;;3.70;;
73593;SDS011;64760;53.404;23.498;2024-02-23T12:00:17;10.43;;;4.57;;
73593;SDS011;64760;53.404;23.498;2024-02-23T12:02:44;8.80;;;4.63;;
73593;SDS011;64760;53.404;23.498;2024-02-23T12:05:16;10.85;;;5.25;;
73593;SDS011;64760;53.404;23.498;2024-02-23T12:07:42;14.57;;;5.45;;
73593;SDS011;64760;53.404;23.498;2024-02-23T12:10:09;12.55;;;4.95;;
73593;SDS011;64760;53.404;23.498;2024-02-23T12:12:37;8.18;;;4.97;;
73593;SDS011;64760;53.404;23.498;2024-02-23T12:15:04;9.85;;;5.10;;
73593;SDS011;64760;53.404;23.498;2024-02-23T12:17:32;10.90;;;5.30;;
73593;SDS011;64760;53.404;23.498;2024-02-23T12:20:02;11.75;;;5.57;;
73593;SDS011;64760;53.404;23.498;2024-02-23T12:26:10;9.90;;;4.53;;
73593;SDS011;64760;53.404;23.498;2024-02-23T12:31:39;8.48;;;5.13;;
73593;SDS011;64760;53.404;23.498;2024-02-23T12:34:05;8.10;;;5.18;;
73593;SDS011;64760;53.404;23.498;2024-02-23T12:36:34;9.32;;;5.43;;
73593;SDS011;64760;53.404;23.498;2024-02-23T12:39:02;11.00;;;5.22;;
73593;SDS011;64760;53.404;23.498;2024-02-23T12:41:28;8.98;;;5.75;;
73593;SDS011;64760;53.404;23.498;2024-02-23T12:43:54;7.28;;;4.97;;
73593;SDS011;64760;53.404;23.498;2024-02-23T12:46:21;8.65;;;5.60;;
73593;SDS011;64760;53.404;23.498;2024-02-23T12:48:48;9.15;;;5.75;;
73593;SDS011;64760;53.404;23.498;2024-02-23T12:51:14;8.27;;;4.78;;
73593;SDS011;64760;53.404;23.498;2024-02-23T12:53:41;7.00;;;4.50;;
73593;SDS011;64760;53.404;23.498;2024-02-23T12:56:11;7.07;;;4.18;;
73593;SDS011;64760;53.404;23.498;2024-02-23T12:58:43;8.57;;;4.82;;
73593;SDS011;64760;53.404;23.498;2024-02-23T13:01:10;7.05;;;4.38;;
73593;SDS011;64760;53.404;23.498;2024-02-23T13:03:37;7.30;;;4.47;;
73593;SDS011;64760;53.404;23.498;2024-02-23T13:06:06;8.57;;;6.07;;
73593;SDS011;64760;53.404;23.498;2024-02-23T13:08:33;7.85;;;5.28;;
73593;SDS011;64760;53.404;23.498;2024-02-23T13:14:01;12.38;;;6.85;;
73593;SDS011;64760;53.404;23.498;2024-02-23T13:16:27;10.90;;;6.03;;
73593;SDS011;64760;53.404;23.498;2024-02-23T13:18:53;8.52;;;5.53;;
73593;SDS011;64760;53.404;23.498;2024-02-23T13:21:31;11.95;;;6.38;;
73593;SDS011;64760;53.404;23.498;2024-02-23T13:23:58;11.73;;;6.57;;
73593;SDS011;64760;53.404;23.498;2024-02-23T13:26:24;10.68;;;5.88;;
73593;SDS011;64760;53.404;23.498;2024-02-23T13:28:51;10.80;;;7.07;;
73593;SDS011;64760;53.404;23.498;2024-02-23T13:31:17;18.40;;;8.85;;
73593;SDS011;64760;53.404;23.498;2024-02-23T13:36:11;18.50;;;10.45;;
73593;SDS011;64760;53.404;23.498;2024-02-23T13:38:38;26.80;;;11.73;;
73593;SDS011;64760;53.404;23.498;2024-02-23T13:41:05;27.70;;;11.43;;
73593;SDS011;64760;53.404;23.498;2024-02-23T13:43:32;13.63;;;7.70;;
73593;SDS011;64760;53.404;23.498;2024-02-23T13:45:59;11.15;;;6.30;;
73593;SDS011;64760;53.404;23.498;2024-02-23T13:48:26;16.52;;;8.32;;
73593;SDS011;64760;53.404;23.498;2024-02-23T13:50:52;21.40;;;9.15;;
73593;SDS011;64760;53.404;23.498;2024-02-23T13:53:18;22.27;;;9.73;;
73593;SDS011;64760;53.404;23.498;2024-02-23T13:55:45;28.58;;;11.88;;
73593;SDS011;64760;53.404;23.498;2024-02-23T13:58:11;33.65;;;14.25;;
73593;SDS011;64760;53.404;23.498;2024-02-23T14:00:38;23.52;;;12.18;;
73593;SDS011;64760;53.404;23.498;2024-02-23T14:03:05;23.55;;;12.32;;
73593;SDS011;64760;53.404;23.498;2024-02-23T14:05:31;15.35;;;7.43;;
73593;SDS011;64760;53.404;23.498;2024-02-23T14:07:57;19.15;;;7.80;;
73593;SDS011;64760;53.404;23.498;2024-02-23T14:10:24;21.92;;;7.45;;
73593;SDS011;64760;53.404;23.498;2024-02-23T14:12:50;11.77;;;6.72;;
73593;SDS011;64760;53.404;23.498;2024-02-23T14:18:04;18.33;;;9.13;;
73593;SDS011;64760;53.404;23.498;2024-02-23T14:20:31;21.30;;;8.90;;
73593;SDS011;64760;53.404;23.498;2024-02-23T14:22:58;15.70;;;8.02;;
73593;SDS011;64760;53.404;23.498;2024-02-23T14:25:25;11.48;;;7.30;;
73593;SDS011;64760;53.404;23.498;2024-02-23T14:32:44;21.08;;;8.85;;
73593;SDS011;64760;53.404;23.498;2024-02-23T14:35:11;16.95;;;9.68;;
73593;SDS011;64760;53.404;23.498;2024-02-23T14:37:37;23.55;;;9.63;;
73593;SDS011;64760;53.404;23.498;2024-02-23T14:40:04;31.30;;;12.07;;
73593;SDS011;64760;53.404;23.498;2024-02-23T14:42:31;24.77;;;11.48;;
73593;SDS011;64760;53.404;23.498;2024-02-23T14:44:57;29.20;;;13.45;;
73593;SDS011;64760;53.404;23.498;2024-02-23T14:47:24;25.52;;;14.57;;
73593;SDS011;64760;53.404;23.498;2024-02-23T14:49:50;31.25;;;15.07;;
73593;SDS011;64760;53.404;23.498;2024-02-23T14:52:16;24.00;;;14.43;;
73593;SDS011;64760;53.404;23.498;2024-02-23T14:54:44;23.50;;;14.95;;
73593;SDS011;64760;53.404;23.498;2024-02-23T14:57:10;28.48;;;16.58;;
73593;SDS011;64760;53.404;23.498;2024-02-23T14:59:36;27.63;;;13.95;;
73593;SDS011;64760;53.404;23.498;2024-02-23T15:02:07;25.63;;;13.15;;
73593;SDS011;64760;53.404;23.498;2024-02-23T15:04:35;27.92;;;13.68;;
73593;SDS011;64760;53.404;23.498;2024-02-23T15:07:02;33.85;;;12.75;;
73593;SDS011;64760;53.404;23.498;2024-02-23T15:09:28;35.63;;;13.98;;
73593;SDS011;64760;53.404;23.498;2024-02-23T15:11:55;38.42;;;15.90;;
73593;SDS011;64760;53.404;23.498;2024-02-23T15:14:21;32.00;;;13.38;;
73593;SDS011;64760;53.404;23.498;2024-02-23T15:16:47;24.17;;;12.52;;
73593;SDS011;64760;53.404;23.498;2024-02-23T15:19:14;20.60;;;10.18;;
73593;SDS011;64760;53.404;23.498;2024-02-23T15:21:40;19.40;;;9.25;;
73593;SDS011;64760;53.404;23.498;2024-02-23T15:24:08;16.05;;;8.27;;
73593;SDS011;64760;53.404;23.498;2024-02-23T15:26:34;15.15;;;8.23;;
73593;SDS011;64760;53.404;23.498;2024-02-23T15:29:01;17.08;;;8.25;;
73593;SDS011;64760;53.404;23.498;2024-02-23T15:31:29;12.60;;;7.47;;
73593;SDS011;64760;53.404;23.498;2024-02-23T15:33:56;10.32;;;6.43;;
73593;SDS011;64760;53.404;23.498;2024-02-23T15:36:24;12.45;;;6.75;;
73593;SDS011;64760;53.404;23.498;2024-02-23T15:38:50;11.02;;;6.55;;
73593;SDS011;64760;53.404;23.498;2024-02-23T15:41:19;7.20;;;5.32;;